sensor_id;sensor_type;location;lat;lon;timestamp;pressure;altitude;pressure_sealevel;temperature;humidity
72061;BME280;59925;52.136;5.420;2023-01-16T00:01:30;99774.97;;;3.90;100.00
72061;BME280;59925;52.136;5.420;2023-01-16T00:03:57;99771.75;;;3.88;100.00
72061;BME280;59925;52.136;5.420;2023-01-16T00:06:23;99772.81;;;3.87;100.00
72061;BME280;59925;52.136;5.420;2023-01-16T00:08:50;99771.75;;;3.88;100.00
72061;BME280;59925;52.136;5.420;2023-01-16T00:11:16;99763.25;;;3.86;100.00
72061;BME280;59925;52.136;5.420;2023-01-16T00:13:43;99761.63;;;3.84;100.00
72061;BME280;59925;52.136;5.420;2023-01-16T00:16:09;99756.03;;;3.81;100.00
72061;BME280;59925;52.136;5.420;2023-01-16T00:18:36;99741.19;;;3.80;100.00
72061;BME280;59925;52.136;5.420;2023-01-16T00:21:02;99731.91;;;3.77;100.00
72061;BME280;59925;52.136;5.420;2023-01-16T00:23:29;99730.78;;;3.73;100.00
72061;BME280;59925;52.136;5.420;2023-01-16T00:25:55;99731.53;;;3.68;100.00
72061;BME280;59925;52.136;5.420;2023-01-16T00:28:22;99716.94;;;3.66;100.00
72061;BME280;59925;52.136;5.420;2023-01-16T00:30:48;99727.00;;;3.64;100.00
72061;BME280;59925;52.136;5.420;2023-01-16T00:33:15;99716.66;;;3.62;100.00
72061;BME280;59925;52.136;5.420;2023-01-16T00:35:41;99721.91;;;3.57;100.00
72061;BME280;59925;52.136;5.420;2023-01-16T00:38:08;99717.09;;;3.54;100.00
72061;BME280;59925;52.136;5.420;2023-01-16T00:40:34;99700.09;;;3.50;100.00
72061;BME280;59925;52.136;5.420;2023-01-16T00:43:00;99695.84;;;3.49;100.00
72061;BME280;59925;52.136;5.420;2023-01-16T00:45:27;99689.75;;;3.48;100.00
72061;BME280;59925;52.136;5.420;2023-01-16T00:47:53;99683.66;;;3.48;100.00
72061;BME280;59925;52.136;5.420;2023-01-16T00:50:20;99692.38;;;3.48;100.00
72061;BME280;59925;52.136;5.420;2023-01-16T00:52:46;99686.03;;;3.49;100.00
72061;BME280;59925;52.136;5.420;2023-01-16T00:55:13;99669.88;;;3.51;100.00
72061;BME280;59925;52.136;5.420;2023-01-16T00:57:39;99662.75;;;3.51;100.00
72061;BME280;59925;52.136;5.420;2023-01-16T01:00:06;99665.69;;;3.55;100.00
72061;BME280;59925;52.136;5.420;2023-01-16T01:02:33;99664.91;;;3.55;100.00
72061;BME280;59925;52.136;5.420;2023-01-16T01:05:00;99668.09;;;3.57;100.00
72061;BME280;59925;52.136;5.420;2023-01-16T01:07:26;99659.06;;;3.58;100.00
72061;BME280;59925;52.136;5.420;2023-01-16T01:09:53;99655.13;;;3.60;100.00
72061;BME280;59925;52.136;5.420;2023-01-16T01:12:19;99654.88;;;3.62;100.00
72061;BME280;59925;52.136;5.420;2023-01-16T01:14:45;99653.81;;;3.63;100.00
72061;BME280;59925;52.136;5.420;2023-01-16T01:17:12;99645.88;;;3.63;100.00
72061;BME280;59925;52.136;5.420;2023-01-16T01:19:38;99640.56;;;3.63;100.00
72061;BME280;59925;52.136;5.420;2023-01-16T01:22:05;99636.31;;;3.62;100.00
72061;BME280;59925;52.136;5.420;2023-01-16T01:24:31;99638.97;;;3.62;100.00
72061;BME280;59925;52.136;5.420;2023-01-16T01:26:58;99649.56;;;3.62;100.00
72061;BME280;59925;52.136;5.420;2023-01-16T01:29:24;99633.69;;;3.62;100.00
72061;BME280;59925;52.136;5.420;2023-01-16T01:31:51;99620.44;;;3.62;100.00
72061;BME280;59925;52.136;5.420;2023-01-16T01:34:17;99629.97;;;3.63;100.00
72061;BME280;59925;52.136;5.420;2023-01-16T01:36:43;99621.75;;;3.64;100.00
72061;BME280;59925;52.136;5.420;2023-01-16T01:39:10;99617.28;;;3.65;100.00
72061;BME280;59925;52.136;5.420;2023-01-16T01:41:36;99613.81;;;3.64;100.00
72061;BME280;59925;52.136;5.420;2023-01-16T01:47:08;99590.47;;;3.61;100.00
72061;BME280;59925;52.136;5.420;2023-01-16T01:49:35;99581.72;;;3.61;100.00
72061;BME280;59925;52.136;5.420;2023-01-16T01:52:04;99573.75;;;3.61;99.80
72061;BME280;59925;52.136;5.420;2023-01-16T01:54:38;99579.34;;;3.59;99.59
72061;BME280;59925;52.136;5.420;2023-01-16T01:57:30;99573.47;;;3.57;100.00
72061;BME280;59925;52.136;5.420;2023-01-16T02:00:03;99574.53;;;3.56;99.85
72061;BME280;59925;52.136;5.420;2023-01-16T02:02:35;99582.47;;;3.56;100.00
72061;BME280;59925;52.136;5.420;2023-01-16T02:05:06;99575.59;;;3.55;99.88
72061;BME280;59925;52.136;5.420;2023-01-16T02:07:35;99577.44;;;3.55;100.00
72061;BME280;59925;52.136;5.420;2023-01-16T02:10:29;99561.78;;;3.53;99.73
72061;BME280;59925;52.136;5.420;2023-01-16T02:12:59;99555.69;;;3.52;99.91
72061;BME280;59925;52.136;5.420;2023-01-16T02:15:26;99554.88;;;3.52;100.00
72061;BME280;59925;52.136;5.420;2023-01-16T02:17:53;99556.19;;;3.49;99.94
72061;BME280;59925;52.136;5.420;2023-01-16T02:21:29;99541.31;;;3.43;100.00
72061;BME280;59925;52.136;5.420;2023-01-16T02:26:54;99523.72;;;3.32;99.98
72061;BME280;59925;52.136;5.420;2023-01-16T02:32:49;99520.56;;;3.30;100.00
72061;BME280;59925;52.136;5.420;2023-01-16T02:35:55;99518.69;;;3.30;100.00
72061;BME280;59925;52.136;5.420;2023-01-16T02:38:26;99516.06;;;3.30;100.00
72061;BME280;59925;52.136;5.420;2023-01-16T02:43:55;99508.66;;;3.32;100.00
72061;BME280;59925;52.136;5.420;2023-01-16T02:46:31;99508.09;;;3.30;100.00
72061;BME280;59925;52.136;5.420;2023-01-16T02:54:36;99484.97;;;3.20;100.00
72061;BME280;59925;52.136;5.420;2023-01-16T02:57:08;99480.22;;;3.17;99.96
72061;BME280;59925;52.136;5.420;2023-01-16T02:59:40;99479.66;;;3.15;99.81
72061;BME280;59925;52.136;5.420;2023-01-16T03:02:07;99473.56;;;3.15;100.00
72061;BME280;59925;52.136;5.420;2023-01-16T03:04:51;99465.88;;;3.13;100.00
72061;BME280;59925;52.136;5.420;2023-01-16T03:15:52;99436.97;;;3.06;100.00
72061;BME280;59925;52.136;5.420;2023-01-16T03:18:38;99426.09;;;3.03;99.98
72061;BME280;59925;52.136;5.420;2023-01-16T03:21:26;99407.22;;;2.99;100.00
72061;BME280;59925;52.136;5.420;2023-01-16T03:24:36;99410.41;;;2.96;100.00
72061;BME280;59925;52.136;5.420;2023-01-16T03:27:24;99409.31;;;2.92;100.00
72061;BME280;59925;52.136;5.420;2023-01-16T03:32:33;99386.50;;;2.86;100.00
72061;BME280;59925;52.136;5.420;2023-01-16T03:35:06;99393.09;;;2.83;100.00
72061;BME280;59925;52.136;5.420;2023-01-16T03:37:39;99380.34;;;2.80;100.00
72061;BME280;59925;52.136;5.420;2023-01-16T03:40:11;99371.34;;;2.76;100.00
72061;BME280;59925;52.136;5.420;2023-01-16T03:43:02;99374.72;;;2.71;100.00
72061;BME280;59925;52.136;5.420;2023-01-16T03:45:43;99367.31;;;2.68;100.00
72061;BME280;59925;52.136;5.420;2023-01-16T03:48:17;99364.13;;;2.66;100.00
72061;BME280;59925;52.136;5.420;2023-01-16T03:50:50;99358.53;;;2.63;100.00
72061;BME280;59925;52.136;5.420;2023-01-16T03:53:22;99361.69;;;2.59;100.00
72061;BME280;59925;52.136;5.420;2023-01-16T03:56:15;99350.56;;;2.57;100.00
72061;BME280;59925;52.136;5.420;2023-01-16T03:58:49;99338.63;;;2.55;100.00
72061;BME280;59925;52.136;5.420;2023-01-16T04:04:25;99326.69;;;2.52;100.00
72061;BME280;59925;52.136;5.420;2023-01-16T04:07:05;99314.53;;;2.51;100.00
72061;BME280;59925;52.136;5.420;2023-01-16T04:09:56;99308.44;;;2.51;100.00
72061;BME280;59925;52.136;5.420;2023-01-16T04:12:28;99303.66;;;2.48;100.00
72061;BME280;59925;52.136;5.420;2023-01-16T04:15:00;99299.41;;;2.47;100.00
72061;BME280;59925;52.136;5.420;2023-01-16T04:17:29;99290.41;;;2.48;100.00
72061;BME280;59925;52.136;5.420;2023-01-16T04:19:56;99289.63;;;2.47;100.00
72061;BME280;59925;52.136;5.420;2023-01-16T04:22:26;99276.16;;;2.49;100.00
72061;BME280;59925;52.136;5.420;2023-01-16T04:24:55;99268.50;;;2.52;100.00
72061;BME280;59925;52.136;5.420;2023-01-16T04:27:22;99261.09;;;2.54;100.00
72061;BME280;59925;52.136;5.420;2023-01-16T04:29:49;99253.16;;;2.54;100.00
72061;BME280;59925;52.136;5.420;2023-01-16T04:32:16;99245.53;;;2.58;100.00
72061;BME280;59925;52.136;5.420;2023-01-16T04:34:42;99231.22;;;2.59;100.00
72061;BME280;59925;52.136;5.420;2023-01-16T04:37:12;99225.94;;;2.59;100.00
72061;BME280;59925;52.136;5.420;2023-01-16T04:39:39;99220.41;;;2.60;100.00
72061;BME280;59925;52.136;5.420;2023-01-16T04:42:07;99211.16;;;2.63;100.00
72061;BME280;59925;52.136;5.420;2023-01-16T04:44:34;99204.28;;;2.62;100.00
72061;BME280;59925;52.136;5.420;2023-01-16T04:47:01;99196.09;;;2.64;100.00
72061;BME280;59925;52.136;5.420;2023-01-16T04:49:27;99190.50;;;2.60;100.00
72061;BME280;59925;52.136;5.420;2023-01-16T04:51:54;99175.66;;;2.59;100.00
72061;BME280;59925;52.136;5.420;2023-01-16T04:54:20;99172.25;;;2.58;100.00
72061;BME280;59925;52.136;5.420;2023-01-16T04:56:47;99160.56;;;2.54;100.00
72061;BME280;59925;52.136;5.420;2023-01-16T04:59:16;99156.09;;;2.55;100.00
72061;BME280;59925;52.136;5.420;2023-01-16T05:01:44;99137.31;;;2.51;100.00
72061;BME280;59925;52.136;5.420;2023-01-16T05:04:12;99135.16;;;2.48;100.00
72061;BME280;59925;52.136;5.420;2023-01-16T05:06:39;99130.91;;;2.47;100.00
72061;BME280;59925;52.136;5.420;2023-01-16T05:09:06;99116.38;;;2.44;100.00
72061;BME280;59925;52.136;5.420;2023-01-16T05:11:34;99114.50;;;2.45;100.00
72061;BME280;59925;52.136;5.420;2023-01-16T05:14:01;99111.09;;;2.44;100.00
72061;BME280;59925;52.136;5.420;2023-01-16T05:16:27;99098.09;;;2.43;100.00
72061;BME280;59925;52.136;5.420;2023-01-16T05:18:54;99090.66;;;2.40;100.00
72061;BME280;59925;52.136;5.420;2023-01-16T05:21:20;99091.22;;;2.42;100.00
72061;BME280;59925;52.136;5.420;2023-01-16T05:23:47;99080.91;;;2.40;100.00
72061;BME280;59925;52.136;5.420;2023-01-16T05:26:13;99067.13;;;2.38;100.00
72061;BME280;59925;52.136;5.420;2023-01-16T05:28:40;99072.16;;;2.40;100.00
72061;BME280;59925;52.136;5.420;2023-01-16T05:31:07;99062.91;;;2.37;100.00
72061;BME280;59925;52.136;5.420;2023-01-16T05:33:33;99059.47;;;2.37;100.00
72061;BME280;59925;52.136;5.420;2023-01-16T05:36:00;99065.28;;;2.39;100.00
72061;BME280;59925;52.136;5.420;2023-01-16T05:38:27;99044.38;;;2.37;100.00
72061;BME280;59925;52.136;5.420;2023-01-16T05:40:53;99033.53;;;2.39;100.00
72061;BME280;59925;52.136;5.420;2023-01-16T05:43:20;99028.78;;;2.41;100.00
72061;BME280;59925;52.136;5.420;2023-01-16T05:45:46;99022.72;;;2.40;100.00
72061;BME280;59925;52.136;5.420;2023-01-16T05:48:13;99010.28;;;2.41;100.00
72061;BME280;59925;52.136;5.420;2023-01-16T05:50:40;98997.59;;;2.43;100.00
72061;BME280;59925;52.136;5.420;2023-01-16T05:53:06;98988.59;;;2.44;100.00
72061;BME280;59925;52.136;5.420;2023-01-16T05:55:41;98974.84;;;2.47;100.00
72061;BME280;59925;52.136;5.420;2023-01-16T05:58:09;98960.59;;;2.48;100.00
72061;BME280;59925;52.136;5.420;2023-01-16T06:00:37;98953.19;;;2.50;100.00
72061;BME280;59925;52.136;5.420;2023-01-16T06:03:04;98941.28;;;2.53;100.00
72061;BME280;59925;52.136;5.420;2023-01-16T06:05:31;98940.47;;;2.57;100.00
72061;BME280;59925;52.136;5.420;2023-01-16T06:07:58;98926.72;;;2.60;100.00
72061;BME280;59925;52.136;5.420;2023-01-16T06:10:25;98909.53;;;2.63;100.00
72061;BME280;59925;52.136;5.420;2023-01-16T06:12:52;98909.28;;;2.65;100.00
72061;BME280;59925;52.136;5.420;2023-01-16T06:15:19;98898.44;;;2.66;100.00
72061;BME280;59925;52.136;5.420;2023-01-16T06:17:46;98893.41;;;2.70;100.00
72061;BME280;59925;52.136;5.420;2023-01-16T06:20:12;98887.59;;;2.73;100.00
72061;BME280;59925;52.136;5.420;2023-01-16T06:22:41;98878.31;;;2.75;100.00
72061;BME280;59925;52.136;5.420;2023-01-16T06:25:09;98877.25;;;2.76;100.00
72061;BME280;59925;52.136;5.420;2023-01-16T06:27:35;98867.19;;;2.79;100.00
72061;BME280;59925;52.136;5.420;2023-01-16T06:30:03;98864.28;;;2.80;100.00
72061;BME280;59925;52.136;5.420;2023-01-16T06:32:30;98853.16;;;2.83;100.00
72061;BME280;59925;52.136;5.420;2023-01-16T06:34:57;98852.88;;;2.85;100.00
72061;BME280;59925;52.136;5.420;2023-01-16T06:37:23;98855.81;;;2.88;100.00
72061;BME280;59925;52.136;5.420;2023-01-16T06:39:50;98853.41;;;2.92;100.00
72061;BME280;59925;52.136;5.420;2023-01-16T06:42:16;98851.84;;;2.96;100.00
72061;BME280;59925;52.136;5.420;2023-01-16T06:44:42;98842.56;;;2.99;100.00
72061;BME280;59925;52.136;5.420;2023-01-16T06:47:09;98835.16;;;3.01;100.00
72061;BME280;59925;52.136;5.420;2023-01-16T06:49:35;98842.03;;;3.02;100.00
72061;BME280;59925;52.136;5.420;2023-01-16T06:52:02;98833.03;;;3.03;100.00
72061;BME280;59925;52.136;5.420;2023-01-16T06:54:28;98830.09;;;3.04;100.00
72061;BME280;59925;52.136;5.420;2023-01-16T06:56:55;98831.41;;;3.07;100.00
72061;BME280;59925;52.136;5.420;2023-01-16T06:59:21;98830.34;;;3.08;100.00
72061;BME280;59925;52.136;5.420;2023-01-16T07:01:48;98817.13;;;3.08;100.00
72061;BME280;59925;52.136;5.420;2023-01-16T07:04:15;98812.88;;;3.07;100.00
72061;BME280;59925;52.136;5.420;2023-01-16T07:06:41;98809.16;;;3.08;100.00
72061;BME280;59925;52.136;5.420;2023-01-16T07:09:10;98803.09;;;3.08;100.00
72061;BME280;59925;52.136;5.420;2023-01-16T07:11:37;98794.34;;;3.07;100.00
72061;BME280;59925;52.136;5.420;2023-01-16T07:14:03;98789.84;;;3.08;100.00
72061;BME280;59925;52.136;5.420;2023-01-16T07:16:48;98789.84;;;3.08;100.00
72061;BME280;59925;52.136;5.420;2023-01-16T07:19:33;98787.47;;;3.06;100.00
72061;BME280;59925;52.136;5.420;2023-01-16T07:22:18;98776.88;;;3.06;100.00
72061;BME280;59925;52.136;5.420;2023-01-16T07:25:14;98756.75;;;3.05;100.00
72061;BME280;59925;52.136;5.420;2023-01-16T07:27:41;98751.75;;;3.03;100.00
72061;BME280;59925;52.136;5.420;2023-01-16T07:30:09;98735.56;;;3.05;100.00
72061;BME280;59925;52.136;5.420;2023-01-16T07:32:36;98740.88;;;3.05;100.00
72061;BME280;59925;52.136;5.420;2023-01-16T07:35:03;98727.13;;;3.03;100.00
72061;BME280;59925;52.136;5.420;2023-01-16T07:37:30;98707.00;;;3.02;100.00
72061;BME280;59925;52.136;5.420;2023-01-16T07:39:56;98711.78;;;3.00;100.00
72061;BME280;59925;52.136;5.420;2023-01-16T07:42:23;98704.63;;;3.00;100.00
72061;BME280;59925;52.136;5.420;2023-01-16T07:44:49;98698.56;;;3.00;100.00
72061;BME280;59925;52.136;5.420;2023-01-16T07:47:15;98689.81;;;2.99;100.00
72061;BME280;59925;52.136;5.420;2023-01-16T07:49:42;98686.38;;;2.99;100.00
72061;BME280;59925;52.136;5.420;2023-01-16T07:52:08;98674.19;;;2.98;100.00
72061;BME280;59925;52.136;5.420;2023-01-16T07:54:35;98667.84;;;2.99;100.00
72061;BME280;59925;52.136;5.420;2023-01-16T07:57:05;98660.19;;;2.97;100.00
72061;BME280;59925;52.136;5.420;2023-01-16T07:59:32;98646.69;;;2.94;100.00
72061;BME280;59925;52.136;5.420;2023-01-16T08:01:58;98637.16;;;2.92;100.00
72061;BME280;59925;52.136;5.420;2023-01-16T08:04:25;98626.06;;;2.90;100.00
72061;BME280;59925;52.136;5.420;2023-01-16T08:06:51;98619.19;;;2.89;100.00
72061;BME280;59925;52.136;5.420;2023-01-16T08:09:18;98608.88;;;2.88;100.00
72061;BME280;59925;52.136;5.420;2023-01-16T08:11:44;98607.28;;;2.87;100.00
72061;BME280;59925;52.136;5.420;2023-01-16T08:14:13;98607.03;;;2.88;100.00
72061;BME280;59925;52.136;5.420;2023-01-16T08:16:39;98596.69;;;2.87;100.00
72061;BME280;59925;52.136;5.420;2023-01-16T08:19:06;98577.41;;;2.86;100.00
72061;BME280;59925;52.136;5.420;2023-01-16T08:21:33;98568.38;;;2.87;100.00
72061;BME280;59925;52.136;5.420;2023-01-16T08:23:59;98563.63;;;2.89;100.00
72061;BME280;59925;52.136;5.420;2023-01-16T08:26:26;98555.69;;;2.89;100.00
72061;BME280;59925;52.136;5.420;2023-01-16T08:28:52;98553.03;;;2.89;100.00
72061;BME280;59925;52.136;5.420;2023-01-16T08:31:19;98533.44;;;2.90;100.00
72061;BME280;59925;52.136;5.420;2023-01-16T08:33:45;98531.56;;;2.91;100.00
72061;BME280;59925;52.136;5.420;2023-01-16T08:36:14;98522.56;;;2.92;100.00
72061;BME280;59925;52.136;5.420;2023-01-16T08:38:43;98513.81;;;2.91;100.00
72061;BME280;59925;52.136;5.420;2023-01-16T08:41:10;98509.06;;;2.94;100.00
72061;BME280;59925;52.136;5.420;2023-01-16T08:43:56;98513.28;;;2.95;100.00
72061;BME280;59925;52.136;5.420;2023-01-16T08:46:42;98508.78;;;2.95;100.00
72061;BME280;59925;52.136;5.420;2023-01-16T08:49:28;98497.91;;;2.97;100.00
72061;BME280;59925;52.136;5.420;2023-01-16T08:52:13;98492.34;;;2.98;100.00
72061;BME280;59925;52.136;5.420;2023-01-16T08:54:39;98490.22;;;3.00;100.00
72061;BME280;59925;52.136;5.420;2023-01-16T08:57:06;98479.63;;;3.00;100.00
72061;BME280;59925;52.136;5.420;2023-01-16T08:59:32;98485.19;;;3.04;100.00
72061;BME280;59925;52.136;5.420;2023-01-16T09:02:01;98483.59;;;3.03;100.00
72061;BME280;59925;52.136;5.420;2023-01-16T09:04:28;98467.41;;;3.04;100.00
72061;BME280;59925;52.136;5.420;2023-01-16T09:06:55;98467.94;;;3.06;100.00
72061;BME280;59925;52.136;5.420;2023-01-16T09:09:22;98458.13;;;3.07;100.00
72061;BME280;59925;52.136;5.420;2023-01-16T09:11:54;98457.56;;;3.10;100.00
72061;BME280;59925;52.136;5.420;2023-01-16T09:14:39;98450.44;;;3.11;100.00
72061;BME280;59925;52.136;5.420;2023-01-16T09:17:06;98450.16;;;3.12;100.00
72061;BME280;59925;52.136;5.420;2023-01-16T09:19:33;98427.63;;;3.15;100.00
72061;BME280;59925;52.136;5.420;2023-01-16T09:22:00;98423.91;;;3.16;100.00
72061;BME280;59925;52.136;5.420;2023-01-16T09:24:27;98419.13;;;3.18;100.00
72061;BME280;59925;52.136;5.420;2023-01-16T09:26:53;98414.34;;;3.20;100.00
72061;BME280;59925;52.136;5.420;2023-01-16T09:29:20;98411.91;;;3.24;100.00
72061;BME280;59925;52.136;5.420;2023-01-16T09:31:46;98397.59;;;3.25;100.00
72061;BME280;59925;52.136;5.420;2023-01-16T09:34:13;98402.06;;;3.29;100.00
72061;BME280;59925;52.136;5.420;2023-01-16T09:36:39;98391.97;;;3.31;100.00
72061;BME280;59925;52.136;5.420;2023-01-16T09:39:06;98395.91;;;3.34;100.00
72061;BME280;59925;52.136;5.420;2023-01-16T09:42:11;98374.72;;;3.34;100.00
72061;BME280;59925;52.136;5.420;2023-01-16T09:44:51;98377.88;;;3.36;100.00
72061;BME280;59925;52.136;5.420;2023-01-16T09:47:22;98373.09;;;3.38;100.00
72061;BME280;59925;52.136;5.420;2023-01-16T09:49:58;98370.16;;;3.40;100.00
72061;BME280;59925;52.136;5.420;2023-01-16T09:52:31;98380.50;;;3.41;100.00
72061;BME280;59925;52.136;5.420;2023-01-16T09:55:22;98363.22;;;3.44;100.00
72061;BME280;59925;52.136;5.420;2023-01-16T09:58:16;98358.44;;;3.46;100.00
72061;BME280;59925;52.136;5.420;2023-01-16T10:01:09;98352.84;;;3.47;100.00
72061;BME280;59925;52.136;5.420;2023-01-16T10:03:37;98347.28;;;3.49;100.00
72061;BME280;59925;52.136;5.420;2023-01-16T10:06:20;98353.59;;;3.53;100.00
72061;BME280;59925;52.136;5.420;2023-01-16T10:09:30;98341.91;;;3.54;100.00
72061;BME280;59925;52.136;5.420;2023-01-16T10:12:04;98337.13;;;3.56;100.00
72061;BME280;59925;52.136;5.420;2023-01-16T10:14:58;98334.19;;;3.58;100.00
72061;BME280;59925;52.136;5.420;2023-01-16T10:20:41;98331.25;;;3.59;100.00
72061;BME280;59925;52.136;5.420;2023-01-16T10:31:15;98312.97;;;3.58;100.00
72061;BME280;59925;52.136;5.420;2023-01-16T10:33:50;98311.44;;;3.57;100.00
72061;BME280;59925;52.136;5.420;2023-01-16T10:36:26;98309.84;;;3.56;100.00
72061;BME280;59925;52.136;5.420;2023-01-16T10:38:57;98295.25;;;3.58;100.00
72061;BME280;59925;52.136;5.420;2023-01-16T10:41:33;98301.31;;;3.59;100.00
72061;BME280;59925;52.136;5.420;2023-01-16T10:44:38;98292.66;;;3.53;100.00
72061;BME280;59925;52.136;5.420;2023-01-16T10:47:29;98310.97;;;3.49;100.00
72061;BME280;59925;52.136;5.420;2023-01-16T10:50:16;98291.66;;;3.49;100.00
72061;BME280;59925;52.136;5.420;2023-01-16T10:53:01;98273.91;;;3.49;100.00
72061;BME280;59925;52.136;5.420;2023-01-16T10:55:29;98269.66;;;3.48;100.00
72061;BME280;59925;52.136;5.420;2023-01-16T10:58:02;98261.72;;;3.48;100.00
72061;BME280;59925;52.136;5.420;2023-01-16T11:00:35;98260.16;;;3.47;100.00
72061;BME280;59925;52.136;5.420;2023-01-16T11:03:27;98253.56;;;3.45;100.00
72061;BME280;59925;52.136;5.420;2023-01-16T11:06:16;98254.06;;;3.47;100.00
72061;BME280;59925;52.136;5.420;2023-01-16T11:08:47;98252.50;;;3.46;100.00
72061;BME280;59925;52.136;5.420;2023-01-16T11:11:15;98244.81;;;3.44;100.00
72061;BME280;59925;52.136;5.420;2023-01-16T11:14:04;98232.38;;;3.45;100.00
72061;BME280;59925;52.136;5.420;2023-01-16T11:16:55;98225.44;;;3.49;100.00
72061;BME280;59925;52.136;5.420;2023-01-16T11:19:48;98218.56;;;3.48;100.00
72061;BME280;59925;52.136;5.420;2023-01-16T11:22:25;98217.00;;;3.47;100.00
72061;BME280;59925;52.136;5.420;2023-01-16T11:24:56;98207.16;;;3.47;100.00
72061;BME280;59925;52.136;5.420;2023-01-16T11:27:29;98201.31;;;3.50;100.00
72061;BME280;59925;52.136;5.420;2023-01-16T11:29:57;98198.84;;;3.54;100.00
72061;BME280;59925;52.136;5.420;2023-01-16T11:32:25;98194.63;;;3.53;100.00
72061;BME280;59925;52.136;5.420;2023-01-16T11:34:55;98185.34;;;3.56;100.00
72061;BME280;59925;52.136;5.420;2023-01-16T11:37:27;98173.06;;;3.60;100.00
72061;BME280;59925;52.136;5.420;2023-01-16T11:40:03;98166.13;;;3.64;100.00
72061;BME280;59925;52.136;5.420;2023-01-16T11:42:32;98165.56;;;3.67;100.00
72061;BME280;59925;52.136;5.420;2023-01-16T11:45:19;98152.91;;;3.78;100.00
72061;BME280;59925;52.136;5.420;2023-01-16T11:48:07;98152.47;;;3.90;100.00
72061;BME280;59925;52.136;5.420;2023-01-16T11:50:57;98154.28;;;4.08;100.00
72061;BME280;59925;52.136;5.420;2023-01-16T11:53:34;98145.19;;;4.28;100.00
72061;BME280;59925;52.136;5.420;2023-01-16T11:59:04;98135.44;;;4.52;100.00
72061;BME280;59925;52.136;5.420;2023-01-16T12:04:30;98124.81;;;4.52;100.00
72061;BME280;59925;52.136;5.420;2023-01-16T12:07:22;98121.31;;;4.56;100.00
72061;BME280;59925;52.136;5.420;2023-01-16T12:09:58;98108.41;;;4.64;100.00
72061;BME280;59925;52.136;5.420;2023-01-16T12:12:34;98094.38;;;4.63;100.00
72061;BME280;59925;52.136;5.420;2023-01-16T12:15:33;98092.81;;;4.62;100.00
72061;BME280;59925;52.136;5.420;2023-01-16T12:20:45;98093.09;;;4.60;100.00
72061;BME280;59925;52.136;5.420;2023-01-16T12:29:12;98075.63;;;4.45;100.00
72061;BME280;59925;52.136;5.420;2023-01-16T12:38:01;98059.91;;;4.35;100.00
72061;BME280;59925;52.136;5.420;2023-01-16T12:41:14;98054.41;;;4.32;100.00
72061;BME280;59925;52.136;5.420;2023-01-16T12:44:27;98051.47;;;4.33;100.00
72061;BME280;59925;52.136;5.420;2023-01-16T12:50:08;98047.13;;;4.37;100.00
72061;BME280;59925;52.136;5.420;2023-01-16T12:52:46;98032.59;;;4.35;99.96
72061;BME280;59925;52.136;5.420;2023-01-16T12:58:34;98024.03;;;4.38;100.00
72061;BME280;59925;52.136;5.420;2023-01-16T13:04:23;98019.22;;;4.40;100.00
72061;BME280;59925;52.136;5.420;2023-01-16T13:06:58;98012.03;;;4.40;100.00
72061;BME280;59925;52.136;5.420;2023-01-16T13:09:44;98017.06;;;4.42;100.00
72061;BME280;59925;52.136;5.420;2023-01-16T13:12:23;98002.91;;;4.47;100.00
72061;BME280;59925;52.136;5.420;2023-01-16T13:15:12;98009.97;;;4.51;100.00
72061;BME280;59925;52.136;5.420;2023-01-16T13:17:48;98007.31;;;4.51;100.00
72061;BME280;59925;52.136;5.420;2023-01-16T13:20:18;98003.28;;;4.54;100.00
72061;BME280;59925;52.136;5.420;2023-01-16T13:22:50;97995.22;;;4.59;100.00
72061;BME280;59925;52.136;5.420;2023-01-16T13:28:21;97986.00;;;4.56;100.00
72061;BME280;59925;52.136;5.420;2023-01-16T13:30:54;97978.22;;;4.60;100.00
72061;BME280;59925;52.136;5.420;2023-01-16T13:33:26;97980.28;;;4.63;100.00
72061;BME280;59925;52.136;5.420;2023-01-16T13:36:03;97968.53;;;4.64;99.78
72061;BME280;59925;52.136;5.420;2023-01-16T13:41:34;97973.16;;;4.72;99.10
72061;BME280;59925;52.136;5.420;2023-01-16T13:44:13;97967.84;;;4.72;99.36
72061;BME280;59925;52.136;5.420;2023-01-16T13:47:04;97977.97;;;4.70;99.21
72061;BME280;59925;52.136;5.420;2023-01-16T13:49:32;97969.69;;;4.72;99.29
72061;BME280;59925;52.136;5.420;2023-01-16T13:52:01;97968.94;;;4.71;99.28
72061;BME280;59925;52.136;5.420;2023-01-16T13:54:36;97963.91;;;4.70;99.58
72061;BME280;59925;52.136;5.420;2023-01-16T13:57:11;97964.22;;;4.68;99.77
72061;BME280;59925;52.136;5.420;2023-01-16T14:13:31;97945.28;;;4.61;99.86
72061;BME280;59925;52.136;5.420;2023-01-16T14:16:00;97938.91;;;4.62;99.42
72061;BME280;59925;52.136;5.420;2023-01-16T14:24:17;97930.94;;;4.62;99.73
72061;BME280;59925;52.136;5.420;2023-01-16T14:26:53;97929.38;;;4.61;99.46
72061;BME280;59925;52.136;5.420;2023-01-16T14:29:48;97923.75;;;4.63;99.36
72061;BME280;59925;52.136;5.420;2023-01-16T14:32:18;97926.72;;;4.61;99.66
72061;BME280;59925;52.136;5.420;2023-01-16T14:34:49;97934.19;;;4.59;99.57
72061;BME280;59925;52.136;5.420;2023-01-16T14:37:27;97932.63;;;4.58;99.67
72061;BME280;59925;52.136;5.420;2023-01-16T14:42:36;97930.38;;;4.51;99.33
72061;BME280;59925;52.136;5.420;2023-01-16T14:54:02;97924.28;;;4.51;99.37
72061;BME280;59925;52.136;5.420;2023-01-16T14:56:53;97923.81;;;4.49;99.46
72061;BME280;59925;52.136;5.420;2023-01-16T14:59:32;97919.75;;;4.51;99.64
72061;BME280;59925;52.136;5.420;2023-01-16T15:02:11;97925.38;;;4.50;99.89
72061;BME280;59925;52.136;5.420;2023-01-16T15:05:21;97918.03;;;4.47;100.00
72061;BME280;59925;52.136;5.420;2023-01-16T15:07:59;97920.94;;;4.45;100.00
72061;BME280;59925;52.136;5.420;2023-01-16T15:10:39;97928.44;;;4.43;100.00
72061;BME280;59925;52.136;5.420;2023-01-16T15:13:13;97922.03;;;4.44;100.00
72061;BME280;59925;52.136;5.420;2023-01-16T15:15:42;97914.69;;;4.41;100.00
72061;BME280;59925;52.136;5.420;2023-01-16T15:18:14;97918.91;;;4.42;100.00
72061;BME280;59925;52.136;5.420;2023-01-16T15:21:00;97914.38;;;4.42;100.00
72061;BME280;59925;52.136;5.420;2023-01-16T15:23:45;97916.56;;;4.40;100.00